^^

Meteo Aereoporti Centro-Italia

 

 
LIRZ - Perugia S.Egidio (208 m.)
Dati ricevuti: 27/04/2017 22:50
Dati non aggiornati
Molto nuvoloso
Molto nuvoloso
 Vento da SSE
Vento: SSE 20 km/h
TEMPERATURA: 15°C
P.to di Rugiada: 11°C
Umidità: 77%
Pressione: 1009 hPa
Nuvole: Molto nuvoloso
Visibilità: 10 km
Dettagli Nuvole: Molto nuvoloso 914 m
2017/04/27 20:50 LIRZ 272050Z 15011KT 9999 BKN030 15/11 Q1009
 
LIPY - Ancona Falconara (12 m.)
Dati ricevuti: 28/04/2017 05:50
Poco nuvoloso
Poco nuvoloso
 Vento da S
Vento: S 15 km/h
TEMPERATURA: 19°C
P.to di Rugiada: 10°C
Umidità: 56%
Pressione: 1003 hPa
Nuvole: Poco nuvoloso
Visibilità: 10 km
Dettagli Nuvole: Qualche nuvola 1219 m
Poco nuvoloso 2134 m
2017/04/28 03:50 LIPY 280350Z 18008KT 140V230 9999 FEW040 SCT070 19/10 Q1003
 
LIPR - Rimini Miramare (12 m.)
Dati ricevuti: 28/04/2017 05:45
Poco nuvoloso
Poco nuvoloso
 Vento da calm
Vento: Calma
TEMPERATURA: 16°C
P.to di Rugiada: 15°C
Umidità: 94%
Pressione: 1004 hPa
Nuvole: Poco nuvoloso
Visibilità: 10 km
Dettagli Nuvole: Qualche nuvola 914 m
Poco nuvoloso 1219 m
2017/04/28 03:45 LIPR 280345Z 00000KT 9999 FEW030 SCT040 16/15 Q1004
 
LIRF - Roma Fiumicino (2 m.)
Dati ricevuti: 28/04/2017 05:50
Pioggia debole, Poco nuvoloso
Pioggia debole, Poco nuvoloso
 Vento da WSW
Vento: WSW 20 km/h
TEMPERATURA: 13°C
P.to di Rugiada: 12°C
Umidità: 94%
Pressione: 1010 hPa
Condizioni generali: Pioggia debole
Nuvole: Poco nuvoloso
Visibilità: 6 km
Dettagli Nuvole: Qualche nuvola 457 m
Poco nuvoloso 1067 m
2017/04/28 03:50 LIRF 280350Z 25011KT 6000 -RA FEW015 SCT035 13/12 Q1010 881100// TEMPO 4000 SHRA
 
LIRA - Roma Ciampino (129 m.)
Dati ricevuti: 28/04/2017 05:20
Poco nuvoloso
Poco nuvoloso
 Vento da SSE
Vento: SSE 30 km/h
TEMPERATURA: 16°C
P.to di Rugiada: 12°C
Umidità: 77%
Pressione: 1008 hPa
Nuvole: Poco nuvoloso
Visibilità: 10 km
Dettagli Nuvole: Poco nuvoloso 914 m
2017/04/28 03:20 LIRA 280320Z 15016KT 120V180 9999 SCT030 16/12 Q1008
 
LIRU - Roma Urbe (17 m.)
Dati ricevuti: 27/04/2017 18:55
Dati non aggiornati
Rain showers, Poco nuvoloso
Rain showers, Poco nuvoloso
 Vento da S
Vento: S 11 km/h
TEMPERATURA: 18°C
P.to di Rugiada: 12°C
Umidità: 68%
Pressione: 1011 hPa
Condizioni generali: Rain Showers
Nuvole: Poco nuvoloso
Visibilità: 4 km
Dettagli Nuvole: Poco nuvoloso 914 m
2017/04/27 16:55 LIRU 271655Z 17006KT 4000 SHRA SCT030 18/12 Q1011
 
LIVF - Frontone (570 m.)
Dati ricevuti: 26/04/2017 09:55
Dati non aggiornati
Poco nuvoloso
Poco nuvoloso
 Vento da WSW
Vento: WSW 57 km/h, Raffica: 102 km/h
TEMPERATURA: 13°C
P.to di Rugiada: 3°C
Umidità: 51%
Pressione: 1006 hPa
Nuvole: Poco nuvoloso
Visibilità: 10 km
Dettagli Nuvole: Poco nuvoloso 1219 m
2017/04/26 07:55 LIVF 260755Z 24031G55KT 9999 SCT040 13/03 Q1006
 
LIRQ - Firenze Peretola (40 m.)
Dati ricevuti: 28/04/2017 05:50
Pioggia, Molto Nuvoloso
Pioggia, Molto Nuvoloso
 Vento da SSE
Vento: SSE 9 km/h
TEMPERATURA: 10°C
Raffreddamento da Vento: 9°C
P.to di Rugiada: 8°C
Umidità: 88%
Pressione: 1007 hPa
Condizioni generali: Pioggia
Nuvole: Molto nuvoloso
Visibilità: 8 km
Dettagli Nuvole: Poco nuvoloso 610 m
Molto nuvoloso 1219 m
2017/04/28 03:50 LIRQ 280350Z 16005KT 8000 RA SCT020 BKN040 10/08 Q1007
 
LIBP - Pescara (10 m.)
Dati ricevuti: 28/04/2017 05:50
Qualche nuvola
Qualche nuvola
 Vento da SW
Vento: SW 24 km/h, Raffica: 44 km/h
TEMPERATURA: 22°C
P.to di Rugiada: 8°C
Umidità: 41%
Pressione: 1004 hPa
Nuvole: Qualche nuvola
Visibilità: 10 km
Dettagli Nuvole: Qualche nuvola 7315 m
2017/04/28 03:50 LIBP 280350Z AUTO 23013G24KT 190V270 9999 FEW240/// 22/08 Q1004
 
LIRV - Viterbo (300 m.)
Dati ricevuti: 27/04/2017 19:55
Dati non aggiornati
Poco nuvoloso
Poco nuvoloso
 Vento da S
Vento: S 22 km/h
TEMPERATURA: 14°C
P.to di Rugiada: 10°C
Umidità: 77%
Pressione: 1010 hPa
Nuvole: Poco nuvoloso
Visibilità: 10 km
Dettagli Nuvole: Poco nuvoloso 488 m
2017/04/27 17:55 LIRV 271755Z 18012KT 9999 SCT016 14/10 Q1010
 
LIQN - Rieti (389 m.)
Dati ricevuti: 27/04/2017 19:50
Dati non aggiornati
Molto nuvoloso
Molto nuvoloso
 Vento da ESE
Vento: ESE 13 km/h
TEMPERATURA: 14°C
P.to di Rugiada: 11°C
Umidità: 82%
Pressione: 1010 hPa
Nuvole: Molto nuvoloso
Visibilità: 9 km
Dettagli Nuvole: Molto nuvoloso 610 m
2017/04/27 17:50 LIQN 271750Z 12007KT 9000 BKN020 14/11 Q1010
 
LIRG - Guidonia -RM- (88 m.)
Dati ricevuti: 27/04/2017 19:55
Dati non aggiornati
Molto nuvoloso
Molto nuvoloso
 Vento da ESE
Vento: ESE 19 km/h
TEMPERATURA: 15°C
P.to di Rugiada: 12°C
Umidità: 82%
Pressione: 1011 hPa
Nuvole: Molto nuvoloso
Visibilità: 9 km
Dettagli Nuvole: Molto nuvoloso 914 m
2017/04/27 17:55 LIRG 271755Z 12010KT 9000 BKN030 15/12 Q1011 RERA
 
LIRK - Terminillo -RI-(1874 m.)
Dati ricevuti: 06/03/2017 20:55
Dati non aggiornati

 Vento da NNW
Vento: NNW 13 km/h, Raffica: 33 km/h
2017/03/06 19:55 LIRK 061955Z AUTO 34007G18KT //// ///// Q////
 
LIPK - Forlì (27 m.)
Dati ricevuti: 27/04/2017 17:50
Dati non aggiornati
Pioggia, Poco nuvoloso
Pioggia, Poco nuvoloso
 Vento da SE
Vento: SE 17 km/h
TEMPERATURA: 19°C
P.to di Rugiada: 12°C
Umidità: 64%
Pressione: 1006 hPa
Condizioni generali: Pioggia
Nuvole: Poco nuvoloso
Visibilità: 10 km
Dettagli Nuvole: Qualche nuvola 457 m
Molto nuvoloso 1524 m
Poco nuvoloso 610 m
2017/04/27 15:50 LIPK 271550Z 14009KT 9999 RA FEW015CB BKN050 SCT020 19/12 Q1006
 
LIRS - Grosseto (5 m.)
Dati ricevuti: 28/04/2017 05:55
Leggera pioggerella, Poco nuvoloso
Leggera pioggerella, Poco nuvoloso
 Vento da NNE
Vento: NNE 15 km/h
TEMPERATURA: 12°C
P.to di Rugiada: 9°C
Umidità: 82%
Pressione: 1006 hPa
Condizioni generali: Leggera pioggerella
Nuvole: Poco nuvoloso
Visibilità: 10 km
Dettagli Nuvole: Poco nuvoloso 488 m
Poco nuvoloso 1829 m
2017/04/28 03:55 LIRS 280355Z 02008KT 9999 -DZ SCT016 SCT060 12/09 Q1006
 
LIRP - Pisa S.Giusto (2 m.)
Dati ricevuti: 28/04/2017 05:45
Molto nuvoloso
Molto nuvoloso
 Vento da SW
Vento: SW 28 km/h
TEMPERATURA: 13°C
P.to di Rugiada: 4°C
Umidità: 55%
Pressione: 1006 hPa
Nuvole: Molto nuvoloso
Visibilità: 10 km
Dettagli Nuvole: Molto nuvoloso 1829 m
2017/04/28 03:45 LIRP 280345Z 23015KT 9999 BKN060 13/04 Q1006 BECMG 24015G30KT